Time;durP1;ratioP1;P1;durP2;ratioP2;P2;SDS_P1;SDS_P2;PMS_P1;PMS_P2;Temp;Humidity;BMP_temperature;BMP_pressure;BME280_temperature;BME280_humidity;BME280_pressure;Samples;Min_cycle;Max_cycle;Signal;HPM_P1;HPM_P2
2021/07/06 05:32:21;;;;;;;21.57;17.20;;;;;;;20.50;82.84;100059.45;1767974;75;26906;-63
2021/07/06 05:34:48;;;;;;;22.67;15.75;;;;;;;20.65;82.26;100061.73;1753522;80;26365;-63
2021/07/06 05:37:15;;;;;;;21.07;16.60;;;;;;;20.81;82.10;100063.39;1753308;80;26515;-63
2021/07/06 05:39:44;;;;;;;26.65;16.12;;;;;;;20.98;81.90;100066.81;1755628;79;25805;-61
2021/07/06 05:42:11;;;;;;;24.75;15.78;;;;;;;21.18;81.88;100066.50;1747723;80;27314;-63
2021/07/06 05:44:39;;;;;;;16.90;14.98;;;;;;;21.41;82.27;100068.95;1755703;80;25876;-63
2021/07/06 05:47:07;;;;;;;18.15;14.38;;;;;;;21.66;81.51;100071.81;1761857;79;25858;-63
2021/07/06 05:49:34;;;;;;;20.82;15.10;;;;;;;21.86;80.60;100069.47;1746650;79;26568;-63
2021/07/06 05:52:01;;;;;;;20.35;15.85;;;;;;;22.09;80.50;100066.95;1759060;80;25635;-63
2021/07/06 05:54:28;;;;;;;19.45;15.28;;;;;;;22.33;80.18;100073.66;1754693;80;27318;-63
2021/07/06 05:56:56;;;;;;;20.45;15.08;;;;;;;22.56;79.56;100070.50;1755491;80;25893;-62
2021/07/06 05:59:23;;;;;;;21.30;14.78;;;;;;;22.80;79.40;100072.20;1756472;80;25742;-63
2021/07/06 06:01:50;;;;;;;18.05;14.63;;;;;;;23.02;78.99;100078.45;1765550;79;25930;-63
2021/07/06 06:04:17;;;;;;;19.57;13.95;;;;;;;23.21;78.59;100075.87;1756916;79;25784;-63
2021/07/06 06:06:43;;;;;;;19.52;14.00;;;;;;;23.38;77.38;100079.13;1777507;79;27372;-63
2021/07/06 06:09:10;;;;;;;15.53;12.60;;;;;;;23.53;76.54;100079.05;1770940;80;25644;-63
2021/07/06 06:11:36;;;;;;;15.55;12.47;;;;;;;23.68;75.80;100084.11;1765834;79;25460;-62
2021/07/06 06:14:03;;;;;;;15.28;12.80;;;;;;;23.82;75.59;100074.97;1755698;80;26085;-62
2021/07/06 06:16:33;;;;;;;13.95;11.70;;;;;;;23.97;74.00;100077.05;1757146;80;25675;-62
2021/07/06 06:18:59;;;;;;;14.58;11.38;;;;;;;24.10;73.92;100067.66;1759898;80;27329;-62
2021/07/06 06:21:27;;;;;;;11.68;10.48;;;;;;;24.27;73.26;100074.84;1757328;79;25719;-63
2021/07/06 06:23:54;;;;;;;12.50;11.20;;;;;;;24.39;72.34;100077.09;1750593;80;25782;-64
2021/07/06 06:26:24;;;;;;;12.20;10.65;;;;;;;24.51;71.62;100075.80;1773042;79;25918;-63
2021/07/06 06:28:51;;;;;;;13.80;10.40;;;;;;;24.65;70.93;100069.37;1759465;80;25822;-63
2021/07/06 06:31:17;;;;;;;11.03;9.85;;;;;;;24.77;70.28;100079.33;1756365;79;27324;-63
2021/07/06 06:33:46;;;;;;;12.23;10.50;;;;;;;24.92;70.32;100076.39;1759181;80;25756;-63
2021/07/06 06:36:12;;;;;;;11.63;10.07;;;;;;;25.07;69.93;100080.56;1754873;79;25834;-63
2021/07/06 06:38:39;;;;;;;10.03;9.00;;;;;;;25.20;68.85;100080.00;1755123;80;26015;-63
2021/07/06 06:41:06;;;;;;;10.35;9.33;;;;;;;25.30;67.85;100081.30;1749525;79;25745;-63
2021/07/06 06:43:33;;;;;;;11.35;9.00;;;;;;;25.40;67.08;100082.34;1753263;80;27331;-63
2021/07/06 06:46:01;;;;;;;10.00;9.00;;;;;;;25.48;66.68;100086.59;1722564;80;25935;-64
2021/07/06 06:48:27;;;;;;;11.55;10.10;;;;;;;25.60;66.43;100085.25;1744796;80;25883;-64
2021/07/06 06:50:54;;;;;;;13.05;9.65;;;;;;;25.77;66.45;100088.19;1744216;79;26037;-63
2021/07/06 06:53:20;;;;;;;12.98;10.25;;;;;;;25.90;66.18;100091.34;1734273;80;26026;-64
2021/07/06 06:55:47;;;;;;;11.33;9.25;;;;;;;26.07;65.86;100095.07;1752865;79;28071;-63
2021/07/06 06:58:13;;;;;;;10.15;9.05;;;;;;;26.23;65.75;100090.25;1743987;79;25797;-63
2021/07/06 07:00:40;;;;;;;11.55;9.38;;;;;;;26.43;64.84;100093.70;1751451;80;25754;-63
2021/07/06 07:03:07;;;;;;;11.50;9.03;;;;;;;26.62;64.32;100091.59;1747855;80;25923;-64
2021/07/06 07:05:34;;;;;;;14.45;10.58;;;;;;;26.81;63.94;100094.82;1742358;80;25441;-63
2021/07/06 07:08:00;;;;;;;10.55;9.18;;;;;;;26.96;63.07;100092.56;1750387;80;27229;-63
2021/07/06 07:10:27;;;;;;;10.60;9.50;;;;;;;27.12;62.74;100098.17;1751190;79;25884;-64
2021/07/06 07:12:54;;;;;;;11.57;10.20;;;;;;;27.31;62.34;100103.59;1752135;80;25699;-63
2021/07/06 07:15:21;;;;;;;11.55;10.03;;;;;;;27.48;61.46;100096.09;1751597;79;25869;-63
2021/07/06 07:17:48;;;;;;;13.80;10.05;;;;;;;27.64;60.87;100100.89;1748934;80;26268;-62
2021/07/06 07:20:15;;;;;;;12.70;9.73;;;;;;;27.78;60.55;100097.00;1743351;80;27981;-63
2021/07/06 07:22:44;;;;;;;11.03;9.85;;;;;;;27.98;60.18;100098.98;1749240;80;25878;-63
2021/07/06 07:25:12;;;;;;;12.07;9.45;;;;;;;28.18;59.99;100101.06;1749864;80;25740;-63
2021/07/06 07:27:39;;;;;;;10.23;9.23;;;;;;;28.40;59.18;100101.31;1720551;82;25993;-63
2021/07/06 07:30:08;;;;;;;10.30;9.05;;;;;;;28.49;57.71;100094.50;1708074;81;25871;-63
2021/07/06 07:32:35;;;;;;;10.05;9.05;;;;;;;28.62;57.75;100091.83;1705299;81;28083;-63
2021/07/06 07:35:01;;;;;;;10.78;9.38;;;;;;;28.79;57.91;100089.78;1718985;82;25887;-62
2021/07/06 07:37:28;;;;;;;59.90;56.33;;;;;;;29.02;57.02;100077.59;1719512;82;26261;-63
2021/07/06 07:39:54;;;;;;;11.03;9.58;;;;;;;29.23;56.44;100087.38;1728149;81;25919;-63
2021/07/06 07:42:21;;;;;;;13.13;8.68;;;;;;;29.40;55.84;100084.49;1745113;80;25699;-64
2021/07/06 07:44:50;;;;;;;9.73;8.70;;;;;;;29.59;55.81;100093.87;1746274;80;27177;-63
2021/07/06 07:47:17;;;;;;;10.23;9.23;;;;;;;29.79;54.86;100082.53;1756832;80;27283;-64
2021/07/06 07:49:44;;;;;;;10.88;8.43;;;;;;;29.98;54.23;100088.50;1743815;80;26916;-63
2021/07/06 07:52:10;;;;;;;14.05;9.05;;;;;;;30.13;53.40;100092.20;1761398;80;25919;-63
2021/07/06 07:54:37;;;;;;;10.08;8.30;;;;;;;30.27;52.18;100091.71;1743237;80;25911;-62
2021/07/06 07:57:07;;;;;;;10.03;8.53;;;;;;;30.29;51.43;100096.25;1761192;79;28001;-62
2021/07/06 07:59:34;;;;;;;14.83;13.58;;;;;;;30.35;51.59;100091.67;1731400;80;25854;-64
2021/07/06 08:02:01;;;;;;;10.72;9.15;;;;;;;30.54;52.15;100091.84;1745567;79;25887;-63
2021/07/06 08:04:29;;;;;;;10.15;8.65;;;;;;;30.73;51.99;100095.56;1750480;79;25927;-65
2021/07/06 08:06:59;;;;;;;16.35;9.58;;;;;;;30.89;50.98;100093.98;1748071;79;25918;-63
2021/07/06 08:09:25;;;;;;;10.68;9.18;;;;;;;31.08;51.50;100102.53;1754664;79;27379;-63
2021/07/06 08:11:51;;;;;;;10.55;9.20;;;;;;;31.27;50.19;100106.98;1751562;80;25678;-63
2021/07/06 08:14:18;;;;;;;8.83;7.75;;;;;;;31.41;49.56;100104.88;1751908;79;25796;-63
2021/07/06 08:16:47;;;;;;;11.78;8.88;;;;;;;31.55;49.47;100107.17;1752081;79;25931;-63
2021/07/06 08:19:14;;;;;;;10.05;8.85;;;;;;;31.80;49.55;100104.00;1751600;79;25807;-63
2021/07/06 08:21:41;;;;;;;17.27;15.68;;;;;;;32.06;49.13;100103.17;1763436;80;27256;-63
2021/07/06 08:24:07;;;;;;;27.70;25.70;;;;;;;32.28;48.54;100106.48;1761909;80;25862;-63
2021/07/06 08:26:36;;;;;;;10.18;9.28;;;;;;;32.44;47.49;100106.80;1760134;79;25908;-63
2021/07/06 08:29:04;;;;;;;11.65;8.38;;;;;;;32.52;46.94;100103.86;1760112;80;26015;-63
2021/07/06 08:31:31;;;;;;;14.03;8.43;;;;;;;32.71;46.57;100108.27;1746021;80;25813;-63
2021/07/06 08:33:57;;;;;;;12.20;8.78;;;;;;;32.84;46.66;100111.52;1757440;80;27363;-63
2021/07/06 08:36:25;;;;;;;9.75;8.85;;;;;;;33.11;45.45;100108.67;1749859;80;25793;-63
2021/07/06 08:38:52;;;;;;;9.95;8.75;;;;;;;33.22;45.31;100115.84;1742836;80;25683;-63
2021/07/06 08:41:18;;;;;;;16.97;15.25;;;;;;;33.35;45.26;100110.84;1755884;80;26501;-63
2021/07/06 08:43:45;;;;;;;10.72;9.28;;;;;;;33.55;44.84;100115.91;1747031;80;25834;-63
2021/07/06 08:46:20;;;;;;;11.93;9.98;;;;;;;33.66;44.60;100112.59;1744755;80;27191;-63
2021/07/06 08:48:49;;;;;;;11.30;10.08;;;;;;;33.79;44.21;100113.83;1744684;80;25881;-63
2021/07/06 08:51:18;;;;;;;;;;;;;;;33.77;43.06;100112.13;1749771;80;25665;-64
2021/07/06 08:53:46;;;;;;;10.30;9.30;;;;;;;33.79;42.77;100116.63;1754391;80;26461;-63
2021/07/06 08:56:14;;;;;;;9.70;8.65;;;;;;;33.70;42.12;100116.05;1755289;80;25629;-63
2021/07/06 08:58:41;;;;;;;12.50;8.68;;;;;;;33.28;41.45;100116.14;1749609;80;27417;-63
2021/07/06 09:01:07;;;;;;;9.43;8.33;;;;;;;32.97;42.11;100117.73;1758224;80;25875;-64
2021/07/06 09:03:54;;;;;;;11.53;9.23;;;;;;;32.97;42.37;100116.97;1752658;80;25821;-63
2021/07/06 09:06:27;;;;;;;22.52;20.68;;;;;;;33.19;42.03;100118.98;1757960;79;26493;-63
2021/07/06 09:09:19;;;;;;;11.80;8.58;;;;;;;33.28;41.13;100125.19;1747660;80;25632;-63
2021/07/06 09:11:53;;;;;;;9.35;8.55;;;;;;;33.37;42.15;100118.77;1746176;79;27301;-64
2021/07/06 09:14:25;;;;;;;9.10;8.30;;;;;;;33.48;39.92;100121.86;1748643;79;25679;-63
2021/07/06 09:16:51;;;;;;;11.95;8.35;;;;;;;33.31;40.65;100122.84;1761334;80;25798;-63
2021/07/06 09:19:25;;;;;;;10.95;8.25;;;;;;;33.31;39.81;100124.25;1761374;78;25899;-63
2021/07/06 09:22:14;;;;;;;13.78;9.25;;;;;;;33.26;40.25;100116.48;1751330;79;25792;-64
2021/07/06 09:24:43;;;;;;;9.90;8.90;;;;;;;33.20;39.47;100128.15;1746166;79;29600;-63
2021/07/06 09:27:25;;;;;;;9.63;8.78;;;;;;;32.69;39.44;100122.56;1749128;78;25775;-63
2021/07/06 09:30:22;;;;;;;9.18;8.28;;;;;;;32.26;39.96;100125.13;1723334;80;25949;-63
2021/07/06 09:32:55;;;;;;;9.95;8.80;;;;;;;32.06;41.42;100120.58;1751104;79;25976;-63
2021/07/06 09:35:26;;;;;;;10.95;8.70;;;;;;;32.48;42.36;100122.21;1737273;80;25928;-63
2021/07/06 09:38:00;;;;;;;9.20;8.35;;;;;;;32.92;41.90;100115.56;1746145;80;27486;-63
2021/07/06 09:40:50;;;;;;;10.63;9.23;;;;;;;33.25;40.75;100115.67;1745335;79;26249;-64
2021/07/06 09:43:20;;;;;;;10.10;9.20;;;;;;;33.30;39.64;100120.65;1761579;79;25661;-64
2021/07/06 09:46:09;;;;;;;11.88;9.18;;;;;;;33.38;40.11;100113.33;1748721;80;26559;-64
2021/07/06 09:48:44;;;;;;;;;;;;;;;33.38;39.08;100116.91;1751792;80;25867;-64
2021/07/06 09:51:25;;;;;;;9.55;8.60;;;;;;;32.95;38.51;100118.83;1758300;79;28017;-64
2021/07/06 09:53:54;;;;;;;9.68;8.78;;;;;;;32.32;38.39;100118.32;1753713;80;25932;-63
2021/07/06 09:56:24;;;;;;;9.80;8.55;;;;;;;31.86;39.56;100105.56;1756562;79;25838;-63
2021/07/06 09:59:06;;;;;;;10.55;8.68;;;;;;;32.05;40.71;100110.62;1751426;80;25947;-63
2021/07/06 10:01:34;;;;;;;12.55;8.75;;;;;;;32.25;40.99;100108.20;1755031;80;25886;-63
2021/07/06 10:04:04;;;;;;;9.93;8.98;;;;;;;32.63;40.55;100109.05;1747267;80;27318;-63
2021/07/06 10:06:31;;;;;;;13.20;8.25;;;;;;;32.63;39.75;100111.84;1742366;80;26145;-64
2021/07/06 10:08:57;;;;;;;9.85;8.48;;;;;;;32.35;39.07;100107.58;1754017;80;25783;-63
2021/07/06 10:11:25;;;;;;;9.43;8.60;;;;;;;32.24;40.21;100104.47;1741801;80;25957;-63
2021/07/06 10:13:52;;;;;;;9.25;8.20;;;;;;;32.42;40.65;100112.89;1752045;80;26288;-63
2021/07/06 10:16:19;;;;;;;9.55;8.45;;;;;;;32.82;41.14;100105.62;1755689;80;27231;-63
2021/07/06 10:18:49;;;;;;;12.43;8.08;;;;;;;33.19;40.23;100110.58;1749664;80;25643;-64
2021/07/06 10:21:15;;;;;;;7.90;7.17;;;;;;;33.41;39.51;100110.36;1758187;80;25860;-64
2021/07/06 10:23:44;;;;;;;9.18;7.25;;;;;;;33.34;38.33;100104.30;1742597;80;26011;-64
2021/07/06 10:26:14;;;;;;;14.55;7.67;;;;;;;33.10;38.65;100104.94;1754189;80;25703;-62
2021/07/06 10:28:41;;;;;;;11.57;7.65;;;;;;;33.13;38.42;100107.61;1758794;80;27528;-61
2021/07/06 10:31:17;;;;;;;8.70;7.55;;;;;;;33.34;38.69;100114.11;1743666;80;25827;-62
2021/07/06 10:33:45;;;;;;;8.18;7.22;;;;;;;33.42;36.96;100107.69;1752579;80;25841;-62
2021/07/06 10:36:16;;;;;;;9.05;7.47;;;;;;;33.17;37.24;100104.67;1753209;80;25926;-62
2021/07/06 10:38:57;;;;;;;12.80;8.10;;;;;;;32.66;36.44;100103.29;1740468;79;25751;-81
2021/07/06 10:41:43;;;;;;;8.00;7.30;;;;;;;32.28;36.82;100110.05;1745372;80;27306;-81
2021/07/06 10:44:09;;;;;;;11.93;7.28;;;;;;;32.27;38.40;100100.12;1754427;80;26000;-80
2021/07/06 10:46:43;;;;;;;12.70;7.67;;;;;;;32.23;37.90;100098.70;1742498;80;25828;-81
2021/07/06 10:49:27;;;;;;;10.08;8.38;;;;;;;32.13;38.07;100098.70;1748809;80;25976;-82
2021/07/06 10:51:56;;;;;;;8.83;8.03;;;;;;;31.96;37.93;100097.36;1745033;80;25847;-82
2021/07/06 10:54:28;;;;;;;9.63;7.60;;;;;;;31.88;37.85;100096.89;1752136;80;27307;-81
2021/07/06 10:57:11;;;;;;;10.03;7.53;;;;;;;32.05;38.63;100095.23;1753356;79;25875;-81
2021/07/06 10:59:38;;;;;;;9.20;8.25;;;;;;;32.19;38.27;100095.43;1747991;79;26466;-82
2021/07/06 11:02:25;;;;;;;8.83;8.10;;;;;;;31.98;37.99;100099.87;1736291;80;28148;-78
2021/07/06 11:04:54;;;;;;;45.85;42.93;;;;;;;31.73;38.12;100097.30;1742405;79;25283;-82
2021/07/06 11:07:39;;;;;;;10.00;7.97;;;;;;;31.74;38.93;100099.64;1751593;80;27321;-82
2021/07/06 11:10:08;;;;;;;62.73;59.33;;;;;;;32.00;38.38;100104.38;1720999;81;25879;-82
2021/07/06 11:12:44;;;;;;;65.08;61.33;;;;;;;31.85;37.96;100096.41;1720280;82;25656;-81
2021/07/06 11:15:36;;;;;;;62.15;58.65;;;;;;;31.65;37.87;100087.01;1716860;82;25938;-82
2021/07/06 11:18:10;;;;;;;49.18;45.98;;;;;;;32.01;38.74;100079.97;1749370;80;25785;-82
2021/07/06 11:20:48;;;;;;;8.58;6.90;;;;;;;32.58;37.64;100084.58;1761662;80;27308;-82
2021/07/06 11:23:22;;;;;;;7.50;6.83;;;;;;;32.88;37.43;100096.72;1750887;80;25714;-78
2021/07/06 11:25:49;;;;;;;7.45;6.75;;;;;;;32.96;37.46;100099.36;1747991;80;25830;-79
2021/07/06 11:28:25;;;;;;;6.55;5.97;;;;;;;33.37;37.63;100094.95;1755777;80;25918;-63
2021/07/06 11:31:00;;;;;;;7.50;6.80;;;;;;;33.73;37.14;100094.68;1747027;80;25731;-63
2021/07/06 11:33:40;;;;;;;7.50;6.80;;;;;;;34.17;37.17;100085.07;1746960;80;27320;-62
2021/07/06 11:36:07;;;;;;;7.83;6.65;;;;;;;34.68;36.57;100082.55;1753522;80;26316;-63
2021/07/06 11:38:41;;;;;;;7.62;6.42;;;;;;;35.09;35.61;100080.78;1750842;80;25887;-62
2021/07/06 11:41:12;;;;;;;7.30;6.55;;;;;;;35.21;34.26;100082.36;1752806;80;25984;-62
2021/07/06 11:43:40;;;;;;;7.25;5.95;;;;;;;34.95;34.10;100088.55;1743389;80;25845;-64
2021/07/06 11:46:14;;;;;;;7.25;6.37;;;;;;;34.48;33.88;100083.97;1746084;80;27427;-62
2021/07/06 11:48:43;;;;;;;8.13;6.35;;;;;;;34.01;34.39;100087.67;1753892;80;25875;-63
2021/07/06 11:51:15;;;;;;;6.60;6.00;;;;;;;33.89;34.89;100084.48;1749121;79;25718;-63
2021/07/06 11:53:55;;;;;;;7.70;5.95;;;;;;;33.81;35.90;100075.63;1725250;81;26624;-63
2021/07/06 11:56:27;;;;;;;6.28;5.67;;;;;;;34.31;36.41;100072.40;1749552;80;25756;-63
2021/07/06 11:58:54;;;;;;;6.42;5.05;;;;;;;34.95;34.46;100076.68;1751685;80;28002;-63
2021/07/06 12:01:22;;;;;;;6.53;5.55;;;;;;;34.97;35.07;100077.61;1743112;80;25869;-64
2021/07/06 12:03:50;;;;;;;7.35;5.83;;;;;;;34.97;35.07;100077.61;1745057;80;25703;-64
2021/07/06 12:06:21;;;;;;;11.10;6.05;;;;;;;35.00;34.44;100072.42;1743289;80;26099;-63
2021/07/06 12:08:53;;;;;;;6.50;5.65;;;;;;;35.59;34.45;100074.44;1744120;80;25827;-62
2021/07/06 12:11:22;;;;;;;9.03;5.35;;;;;;;35.59;34.45;100074.44;1753593;80;27955;-62
2021/07/06 12:13:56;;;;;;;5.05;4.58;;;;;;;35.95;33.47;100062.56;1758159;80;25440;-62
2021/07/06 12:16:37;;;;;;;6.87;4.85;;;;;;;35.95;33.47;100062.56;1753073;80;25824;-62
2021/07/06 12:19:11;;;;;;;5.25;4.85;;;;;;;36.21;32.96;100059.84;1752778;80;26064;-63
2021/07/06 12:21:44;;;;;;;5.33;4.53;;;;;;;35.99;31.65;100063.12;1755065;80;26038;-64
2021/07/06 12:24:19;;;;;;;5.10;4.60;;;;;;;35.87;31.78;100057.20;1742395;80;27443;-64
2021/07/06 12:26:56;;;;;;;5.10;4.70;;;;;;;35.85;31.37;100057.70;1742831;79;25803;-63
2021/07/06 12:29:32;;;;;;;5.08;4.50;;;;;;;35.82;31.46;100057.91;1748301;80;25858;-64
2021/07/06 12:32:02;;;;;;;5.83;4.95;;;;;;;34.86;31.50;100061.97;1754510;80;27013;-64
2021/07/06 12:34:46;;;;;;;7.55;5.40;;;;;;;34.86;31.50;100061.97;1710769;81;25921;-63
2021/07/06 12:37:16;;;;;;;57.45;54.33;;;;;;;34.74;32.26;100044.91;1751354;80;29097;-63
2021/07/06 12:39:45;;;;;;;48.08;44.88;;;;;;;34.52;32.17;100038.86;1747085;80;25784;-64
2021/07/06 12:42:19;;;;;;;7.47;4.65;;;;;;;34.34;32.63;100038.38;1758173;80;26616;-63
2021/07/06 12:44:53;;;;;;;4.90;4.50;;;;;;;34.05;32.82;100041.20;1750744;80;25939;-63
2021/07/06 12:47:33;;;;;;;6.95;5.10;;;;;;;33.73;32.63;100035.19;1755321;80;25508;-63
2021/07/06 12:50:16;;;;;;;5.97;4.65;;;;;;;33.50;33.31;100038.06;1749632;80;27899;-64
2021/07/06 12:52:49;;;;;;;7.22;5.95;;;;;;;33.69;34.02;100031.13;1759587;79;25740;-63
2021/07/06 12:55:28;;;;;;;4.92;4.40;;;;;;;33.98;34.77;100025.50;1748021;80;25892;-63
2021/07/06 12:58:14;;;;;;;4.90;4.50;;;;;;;34.42;34.44;100028.33;1764038;79;26507;-64
2021/07/06 13:00:43;;;;;;;5.20;4.42;;;;;;;34.64;32.86;100027.97;1767400;79;25837;-63
2021/07/06 13:03:19;;;;;;;57.75;54.85;;;;;;;34.95;33.46;100067.48;1766396;79;27316;-63
2021/07/06 13:05:50;;;;;;;57.75;54.75;;;;;;;34.94;33.12;100023.17;1759817;78;27152;-63
2021/07/06 13:08:30;;;;;;;57.23;54.23;;;;;;;34.88;32.38;100026.51;1756072;79;25687;-63
2021/07/06 13:11:04;;;;;;;59.50;56.42;;;;;;;34.72;32.53;100041.81;1749849;80;25923;-64
2021/07/06 13:13:31;;;;;;;60.20;56.83;;;;;;;34.51;32.01;100031.05;1757250;79;25816;-64
2021/07/06 13:16:05;;;;;;;4.50;4.17;;;;;;;34.39;32.09;100032.86;1754030;80;28085;-63
2021/07/06 13:18:41;;;;;;;5.33;4.80;;;;;;;34.62;32.69;100034.70;1723495;80;25866;-63
2021/07/06 13:21:11;;;;;;;4.65;4.28;;;;;;;34.69;31.72;100039.94;1755382;80;25758;-80
2021/07/06 13:23:39;;;;;;;4.72;4.33;;;;;;;34.47;31.24;100032.50;1749827;79;25919;-79
2021/07/06 13:26:07;;;;;;;5.17;4.50;;;;;;;34.28;31.69;100033.30;1756596;79;25933;-80
2021/07/06 13:28:34;;;;;;;5.12;4.58;;;;;;;34.28;31.69;100033.30;1762812;79;27303;-80
2021/07/06 13:31:01;;;;;;;3.80;3.42;;;;;;;34.26;31.41;100037.19;1752100;78;25797;-81
2021/07/06 13:33:28;;;;;;;4.20;3.80;;;;;;;34.26;31.41;100037.19;1744844;80;25843;-80
2021/07/06 13:35:57;;;;;;;3.30;3.10;;;;;;;34.42;30.98;100049.38;1764464;80;25950;-80
2021/07/06 13:38:26;;;;;;;3.98;3.67;;;;;;;34.42;30.98;100049.38;1753392;80;25849;-79
2021/07/06 13:40:54;;;;;;;3.67;3.20;;;;;;;34.39;31.19;100030.69;1743729;80;27306;-79
2021/07/06 13:43:22;;;;;;;4.42;3.37;;;;;;;34.61;31.74;100026.89;1754263;80;25672;-80
2021/07/06 13:45:49;;;;;;;5.20;3.62;;;;;;;34.90;31.28;100028.83;1747493;79;25834;-79
2021/07/06 13:48:17;;;;;;;4.20;3.90;;;;;;;35.06;30.32;100026.16;1755148;80;26615;-80
2021/07/06 13:50:46;;;;;;;4.45;4.05;;;;;;;34.96;30.55;100019.24;1757464;80;25650;-80
2021/07/06 13:53:15;;;;;;;5.78;3.60;;;;;;;34.96;30.20;100023.45;1753873;79;27432;-80
2021/07/06 13:55:42;;;;;;;4.67;3.85;;;;;;;34.88;30.15;100018.08;1765817;79;25859;-77
2021/07/06 13:58:11;;;;;;;3.98;3.67;;;;;;;34.78;29.86;100020.84;1741141;80;25696;-79
2021/07/06 14:00:39;;;;;;;3.87;3.50;;;;;;;34.63;30.33;100023.61;1734985;80;26008;-78
2021/07/06 14:03:10;;;;;;;4.87;4.43;;;;;;;34.54;30.61;100024.47;1744954;79;25788;-79
2021/07/06 14:05:46;;;;;;;5.97;3.92;;;;;;;34.42;30.21;100016.46;1724636;80;27193;-79
2021/07/06 14:08:14;;;;;;;4.20;3.90;;;;;;;34.27;30.88;100023.31;1750852;79;26035;-77
2021/07/06 14:10:42;;;;;;;3.98;3.67;;;;;;;34.26;30.59;100021.14;1760811;79;25674;-79
2021/07/06 14:13:08;;;;;;;4.03;3.72;;;;;;;34.32;30.54;100024.05;1754399;79;26483;-77
2021/07/06 14:15:35;;;;;;;4.22;3.80;;;;;;;34.23;30.14;100027.07;1751530;80;25892;-79
2021/07/06 14:18:02;;;;;;;3.67;3.37;;;;;;;33.98;29.88;100025.50;1762697;79;27372;-76
2021/07/06 14:20:29;;;;;;;3.65;3.35;;;;;;;33.77;30.22;100028.77;1748979;78;26019;-79
2021/07/06 14:22:55;;;;;;;4.95;3.47;;;;;;;33.68;30.54;100026.03;1759241;79;25679;-77
2021/07/06 14:25:22;;;;;;;3.70;3.40;;;;;;;33.66;30.43;100032.08;1747089;80;25899;-78
2021/07/06 14:27:49;;;;;;;3.50;3.15;;;;;;;33.73;31.06;100030.19;1730923;80;25797;-78
2021/07/06 14:30:16;;;;;;;3.12;2.90;;;;;;;33.80;30.97;100032.63;1758152;80;27363;-79
2021/07/06 14:32:42;;;;;;;3.70;3.35;;;;;;;33.66;30.26;100043.30;1734448;79;25807;-79
2021/07/06 14:35:12;;;;;;;3.40;3.10;;;;;;;33.62;30.31;100073.52;1762707;79;25875;-78
2021/07/06 14:37:41;;;;;;;3.72;3.42;;;;;;;33.24;30.40;100036.31;1746345;80;26086;-80
2021/07/06 14:40:11;;;;;;;3.83;3.35;;;;;;;33.22;30.85;100030.38;1751124;80;25941;-79
2021/07/06 14:42:38;;;;;;;3.67;3.15;;;;;;;33.26;30.62;100043.62;1740338;81;27316;-79
2021/07/06 14:45:07;;;;;;;3.95;3.27;;;;;;;33.06;30.47;100038.51;1745359;80;25736;-80
2021/07/06 14:47:33;;;;;;;;;;;;;;;32.91;30.50;100034.18;1674535;83;25828;-76
2021/07/06 14:50:00;;;;;;;3.45;3.10;;;;;;;32.88;30.29;100030.31;1754381;80;26091;-79
2021/07/06 14:52:26;;;;;;;3.00;2.75;;;;;;;32.79;30.62;100032.34;1740860;80;25677;-78
2021/07/06 14:54:54;;;;;;;3.52;3.00;;;;;;;32.74;30.97;100025.34;1751608;80;27425;-78
2021/07/06 14:57:26;;;;;;;3.77;3.45;;;;;;;32.71;31.31;100025.67;1753604;80;25766;-77
2021/07/06 14:59:48;;;;;;;3.35;3.08;;;;;;;32.81;32.03;100031.24;1753191;79;25676;-79
2021/07/06 15:02:15;;;;;;;3.58;3.37;;;;;;;32.76;31.04;100037.64;1758592;80;25892;-79
2021/07/06 15:04:42;;;;;;;4.17;3.52;;;;;;;32.60;31.21;100032.33;1748530;79;25836;-79
2021/07/06 15:07:08;;;;;;;3.55;3.25;;;;;;;32.52;31.87;100031.09;1741641;80;28502;-79
2021/07/06 15:09:36;;;;;;;3.42;3.15;;;;;;;32.52;31.71;100029.69;1756078;80;25649;-79
2021/07/06 15:12:04;;;;;;;4.10;3.55;;;;;;;32.43;31.74;100028.30;1758282;79;29918;-79
2021/07/06 15:14:30;;;;;;;3.52;3.22;;;;;;;32.31;32.37;100029.38;1761348;80;26615;-79
2021/07/06 15:16:57;;;;;;;3.70;3.35;;;;;;;32.33;32.22;100030.32;1748761;80;26336;-80
2021/07/06 15:19:24;;;;;;;3.75;3.45;;;;;;;32.25;32.37;100028.47;1755752;80;27321;-76
2021/07/06 15:21:51;;;;;;;3.27;3.08;;;;;;;32.18;31.98;100024.55;1758219;80;25870;-79
2021/07/06 15:24:18;;;;;;;3.00;2.80;;;;;;;32.02;32.08;100024.20;1764324;79;25656;-78
2021/07/06 15:26:44;;;;;;;3.37;3.05;;;;;;;31.95;32.23;100017.52;1750737;80;25925;-78
2021/07/06 15:29:13;;;;;;;3.60;2.85;;;;;;;31.83;31.98;100015.02;1754896;80;26519;-79
2021/07/06 15:31:40;;;;;;;3.40;3.08;;;;;;;31.72;32.10;100021.05;1749048;80;27340;-79
2021/07/06 15:34:06;;;;;;;3.33;2.90;;;;;;;31.64;32.54;100019.16;1741933;80;25693;-79
2021/07/06 15:36:33;;;;;;;3.27;2.90;;;;;;;31.59;32.62;100016.97;1751467;80;26615;-79
2021/07/06 15:39:00;;;;;;;4.85;3.55;;;;;;;31.52;32.53;100013.06;1761748;79;25921;-79
2021/07/06 15:41:27;;;;;;;5.17;3.30;;;;;;;31.41;32.42;100019.66;1759877;80;25518;-79
2021/07/06 15:43:53;;;;;;;3.52;3.27;;;;;;;31.24;32.39;100012.91;1737694;80;27298;-79
2021/07/06 15:46:20;;;;;;;3.90;3.50;;;;;;;31.20;32.77;100015.70;1742481;79;25825;-79
2021/07/06 15:48:47;;;;;;;3.72;3.42;;;;;;;31.20;32.85;100012.91;1759108;80;25874;-78
2021/07/06 15:51:14;;;;;;;3.87;3.52;;;;;;;31.19;33.21;100014.13;1744861;80;25935;-76
2021/07/06 15:53:40;;;;;;;7.05;3.15;;;;;;;31.14;32.82;100014.73;1750687;79;25831;-78
2021/07/06 15:56:07;;;;;;;3.67;3.20;;;;;;;31.01;33.04;100020.42;1747882;80;27310;-77
2021/07/06 15:58:35;;;;;;;4.08;3.22;;;;;;;30.93;33.23;100025.45;1745379;79;27185;-78
2021/07/06 16:01:04;;;;;;;3.90;3.60;;;;;;;30.80;33.45;100026.94;1748202;80;25740;-78
2021/07/06 16:03:31;;;;;;;3.62;2.67;;;;;;;30.65;33.63;100022.48;1749756;79;25923;-78
2021/07/06 16:05:57;;;;;;;5.10;3.50;;;;;;;30.58;33.87;100025.54;1746887;80;25860;-79
2021/07/06 16:08:24;;;;;;;3.80;3.50;;;;;;;30.43;33.87;100018.28;1753047;80;27479;-79
2021/07/06 16:10:50;;;;;;;4.17;3.02;;;;;;;30.41;34.37;100017.97;1749508;80;26169;-78
2021/07/06 16:13:17;;;;;;;3.45;3.15;;;;;;;30.43;34.75;100018.91;1752244;80;25769;-79
2021/07/06 16:15:43;;;;;;;3.30;3.10;;;;;;;30.38;34.95;100014.69;1746931;79;26096;-80
2021/07/06 16:18:10;;;;;;;3.92;3.62;;;;;;;30.31;35.07;100015.68;1716280;81;25764;-74
2021/07/06 16:20:38;;;;;;;3.17;2.92;;;;;;;30.30;35.31;100016.13;1751773;79;27354;-78
2021/07/06 16:23:07;;;;;;;3.63;3.30;;;;;;;30.29;35.09;100023.73;1742161;80;26458;-79
2021/07/06 16:25:33;;;;;;;4.95;3.40;;;;;;;30.24;34.80;100016.53;1730757;81;25745;-79
2021/07/06 16:28:00;;;;;;;3.25;3.05;;;;;;;30.16;34.86;100020.19;1746237;80;26106;-79
2021/07/06 16:30:27;;;;;;;3.40;3.17;;;;;;;30.10;35.01;100017.80;1745882;80;26334;-77
2021/07/06 16:32:54;;;;;;;4.40;4.00;;;;;;;30.07;35.33;100018.70;1753620;80;27301;-78
2021/07/06 16:35:22;;;;;;;3.50;3.20;;;;;;;30.04;35.28;100019.00;1747947;79;25951;-79
2021/07/06 16:37:54;;;;;;;3.50;3.20;;;;;;;29.92;35.40;100019.19;1765275;80;25851;-79
2021/07/06 16:40:22;;;;;;;3.80;3.50;;;;;;;29.86;35.42;100021.59;1760580;80;25923;-77
2021/07/06 16:42:50;;;;;;;4.17;3.87;;;;;;;29.82;35.58;100024.50;1748873;80;25491;-78
2021/07/06 16:45:18;;;;;;;4.40;3.60;;;;;;;29.83;35.81;100030.26;1747898;80;27366;-79
2021/07/06 16:47:45;;;;;;;3.95;3.58;;;;;;;29.78;35.58;100026.61;1753569;80;25555;-78
2021/07/06 16:50:16;;;;;;;3.92;3.62;;;;;;;29.73;35.73;100034.91;1763306;80;25813;-78
2021/07/06 17:58:46;;;;;;;5.87;4.75;;;;;;;27.78;41.85;100040.66;1607218;88;25941;-64
2021/07/06 18:01:14;;;;;;;6.62;6.03;;;;;;;27.71;42.19;100045.16;1604532;88;25931;-65
2021/07/06 18:03:40;;;;;;;10.20;7.03;;;;;;;27.62;42.22;100044.19;1605475;88;25936;-65
2021/07/06 18:06:07;;;;;;;6.12;5.17;;;;;;;27.52;42.67;100041.23;1601139;88;27413;-64
2021/07/06 18:08:36;;;;;;;6.65;6.03;;;;;;;27.43;42.46;100048.58;1592236;88;25986;-64
2021/07/06 18:11:09;;;;;;;7.28;6.45;;;;;;;27.34;43.22;100040.23;1606548;88;25703;-64